Terminal Aerodrome Forecast
Issued by NWS

Home | Current Version | Previous Version | Text Only | Print | Product List | Glossary Off
Versions: 1 2 3 4 5 6 7 8 9 10 11 12 13 14 15 16 17 18 19 20 21 22 23 24 25

000
FTUS43 KGRB 190900 AAB
TAFAUW
TAF AMD
KAUW 190924Z 1909/2006 15006KT 3SM BR OVC002
      TEMPO 1909/1913 1SM BR
     FM191300 19010G16KT 5SM BR BKN003 WS015/22030KT
     FM191600 18014G22KT P6SM SCT100 BKN200
     FM192200 19011KT P6SM BKN100 BKN250
     FM200200 18006KT P6SM VCSH BKN070=

USA.gov is the U.S. government's official web portal to all federal, state and local government web resources and services.